Time;durP1;ratioP1;P1;durP2;ratioP2;P2;SDS_P1;SDS_P2;PMS_P1;PMS_P2;Temp;Humidity;BMP_temperature;BMP_pressure;BME280_temperature;BME280_humidity;BME280_pressure;Samples;Min_cycle;Max_cycle;Signal;HPM_P1;HPM_P2
2020/12/06 00:01:46;;;;;;;;;36.75;32.00;;;;;13.06;48.01;98235.75;6162641;28;98499;-60
2020/12/06 00:04:48;;;;;;;;;40.00;32.60;;;;;13.04;48.28;98244.16;6162269;28;98633;-60
2020/12/06 00:07:49;;;;;;;;;37.00;32.00;;;;;13.05;48.18;98236.88;6157840;28;97024;-60
2020/12/06 00:10:50;;;;;;;;;36.00;32.00;;;;;13.02;48.32;98228.16;6138646;28;97493;-60
2020/12/06 00:13:52;;;;;;;;;34.40;32.00;;;;;12.96;48.03;98233.75;6138211;28;96648;-60
2020/12/06 00:16:53;;;;;;;;;40.00;33.00;;;;;12.90;48.19;98241.00;6136590;28;97551;-60
2020/12/06 00:19:55;;;;;;;;;39.60;33.00;;;;;12.87;48.32;98240.69;6137512;28;97483;-60
2020/12/06 00:22:57;;;;;;;;;40.00;33.00;;;;;12.82;47.99;98244.16;6139170;28;97536;-60
2020/12/06 00:25:58;;;;;;;;;42.80;36.00;;;;;12.73;48.07;98255.66;6139272;28;97170;-60
2020/12/06 00:29:00;;;;;;;;;37.00;33.00;;;;;12.65;48.06;98248.81;6138352;28;98799;-60
2020/12/06 00:32:02;;;;;;;;;37.60;33.00;;;;;12.65;48.33;98246.13;6138363;28;97462;-60
2020/12/06 00:35:10;;;;;;;;;38.75;32.75;;;;;12.57;48.67;98247.34;6138035;28;97687;-60
2020/12/06 00:38:11;;;;;;;;;38.00;32.00;;;;;12.47;48.96;98236.38;6145923;28;97503;-60
2020/12/06 00:41:15;;;;;;;;;41.00;35.00;;;;;12.47;48.96;98236.38;6152512;28;97476;-60
2020/12/06 00:44:16;;;;;;;;;37.00;32.00;;;;;12.48;48.93;98246.16;6137352;28;97576;-60
2020/12/06 00:47:19;;;;;;;;;39.00;34.00;;;;;12.46;48.79;98242.84;6157990;28;98316;-60
2020/12/06 00:50:20;;;;;;;;;39.00;32.60;;;;;12.49;49.29;98247.78;6161586;28;99278;-60
2020/12/06 00:53:22;;;;;;;;;42.50;35.50;;;;;12.58;49.46;98245.47;6155059;28;96564;-60
2020/12/06 00:56:24;;;;;;;;;41.40;33.00;;;;;12.64;49.53;98243.66;6146187;28;98343;-60
2020/12/06 00:59:25;;;;;;;;;39.00;32.20;;;;;12.72;49.66;98252.13;6162256;28;98004;-60
2020/12/06 01:02:37;;;;;;;;;39.00;33.00;;;;;12.71;48.09;98249.66;6161608;28;98143;-60
2020/12/06 01:05:39;;;;;;;;;39.00;32.60;;;;;12.58;47.13;98245.47;6152603;28;96984;-60
2020/12/06 01:08:41;;;;;;;;;40.00;33.00;;;;;12.47;48.59;98238.28;6137799;28;97132;-60
2020/12/06 01:11:47;;;;;;;;;38.25;32.25;;;;;12.28;49.64;98209.91;6136065;28;98465;-60
2020/12/06 01:14:48;;;;;;;;;34.00;30.50;;;;;12.45;49.11;98237.72;6160624;28;97462;-60
2020/12/06 01:17:50;;;;;;;;;37.00;32.00;;;;;12.38;48.82;98237.88;6161404;28;97106;-60
2020/12/06 01:20:51;;;;;;;;;33.20;30.00;;;;;12.38;49.29;98248.69;6158482;28;97513;-60
2020/12/06 01:23:52;;;;;;;;;32.50;30.00;;;;;12.45;49.65;98246.66;6148779;28;96637;-60
2020/12/06 01:26:54;;;;;;;;;29.25;28.25;;;;;12.48;50.35;98248.84;6159273;28;97431;-60
2020/12/06 01:29:55;;;;;;;;;35.80;31.60;;;;;12.51;49.78;98244.84;6139410;28;96687;-60
2020/12/06 01:32:57;;;;;;;;;35.40;32.00;;;;;12.46;49.13;98250.19;6157942;28;99427;-60
2020/12/06 01:35:58;;;;;;;;;36.20;31.80;;;;;12.34;47.47;98238.63;6162308;28;98691;-60
2020/12/06 01:39:00;;;;;;;;;34.00;30.00;;;;;12.14;47.46;98223.75;6161619;28;96582;-60
2020/12/06 01:42:02;;;;;;;;;32.50;30.00;;;;;12.01;49.32;98218.72;6158194;28;97580;-60
2020/12/06 01:45:03;;;;;;;;;39.40;32.60;;;;;12.19;48.61;98251.91;6136327;28;98033;-60
2020/12/06 01:48:09;;;;;;;;;38.00;31.60;;;;;12.06;48.62;98250.38;6136711;28;97018;-60
2020/12/06 01:51:11;;;;;;;;;31.60;29.40;;;;;12.06;49.70;98255.78;6152028;28;97229;-60
2020/12/06 01:54:12;;;;;;;;;36.00;30.00;;;;;12.09;50.57;98255.28;6153399;28;98358;-60
2020/12/06 01:57:14;;;;;;;;;38.25;32.00;;;;;12.03;48.15;98248.16;6138174;28;96684;-60
2020/12/06 02:00:15;;;;;;;;;37.00;31.00;;;;;11.89;48.67;98260.38;6135874;28;96631;-60
2020/12/06 02:03:17;;;;;;;;;31.60;27.60;;;;;11.82;49.63;98255.16;6150774;28;96952;-60
2020/12/06 02:06:18;;;;;;;;;32.80;30.00;;;;;11.89;49.72;98263.06;6160000;28;97706;-60
2020/12/06 02:09:21;;;;;;;;;32.00;29.00;;;;;11.94;50.49;98261.25;6159251;28;96890;-60
2020/12/06 02:12:23;;;;;;;;;33.40;30.00;;;;;12.04;50.89;98263.31;6159657;28;96592;-60
2020/12/06 02:15:24;;;;;;;;;33.40;30.00;;;;;12.14;50.70;98263.47;6159281;28;97222;-59
2020/12/06 02:18:26;;;;;;;;;31.60;30.00;;;;;12.12;50.41;98260.19;6158182;28;97477;-60
2020/12/06 02:21:27;;;;;;;;;38.60;30.00;;;;;12.18;50.32;98266.50;6151717;28;97411;-60
2020/12/06 02:24:29;;;;;;;;;32.00;30.00;;;;;12.19;49.82;98255.44;6135297;28;97780;-60
2020/12/06 02:27:30;;;;;;;;;34.25;30.00;;;;;12.14;49.72;98266.19;6135515;28;96914;-60
2020/12/06 02:30:33;;;;;;;;;33.20;30.00;;;;;12.07;48.97;98252.03;6135290;28;97450;-60
2020/12/06 02:33:34;;;;;;;;;36.25;29.75;;;;;11.96;49.17;98256.44;6135322;28;96999;-60
2020/12/06 02:36:37;;;;;;;;;38.40;32.00;;;;;11.92;49.54;98251.78;6135577;28;96693;-60
2020/12/06 02:39:38;;;;;;;;;35.20;30.00;;;;;11.93;50.15;98254.22;6144270;28;97325;-60
2020/12/06 02:42:40;;;;;;;;;31.00;30.00;;;;;11.98;51.06;98267.00;6159782;28;98872;-60
2020/12/06 02:45:41;;;;;;;;;33.20;30.00;;;;;12.07;50.84;98255.53;6174726;28;96917;-60
2020/12/06 02:48:42;;;;;;;;;32.40;30.00;;;;;12.12;50.49;98249.38;6159268;28;99234;-60
2020/12/06 02:51:44;;;;;;;;;33.25;29.25;;;;;12.10;50.19;98263.16;6158171;28;98483;-60
2020/12/06 02:54:45;;;;;;;;;33.00;30.00;;;;;12.09;50.42;98264.22;6160174;28;97216;-59
2020/12/06 02:57:46;;;;;;;;;34.40;29.40;;;;;12.10;50.32;98262.34;6159714;28;97353;-60
2020/12/06 03:00:48;;;;;;;;;34.25;29.25;;;;;12.05;50.08;98257.69;6158457;28;97241;-60
2020/12/06 03:03:49;;;;;;;;;31.00;30.00;;;;;12.04;49.71;98257.91;6157769;28;97463;-60
2020/12/06 03:06:51;;;;;;;;;32.40;30.00;;;;;11.99;49.83;98249.72;6157341;28;97681;-60
2020/12/06 03:09:52;;;;;;;;;29.00;28.00;;;;;11.76;50.38;98223.72;6134630;28;97431;-60
2020/12/06 03:12:53;;;;;;;;;37.80;32.00;;;;;12.02;50.09;98262.75;6154987;28;96632;-60
2020/12/06 03:15:55;;;;;;;;;32.00;30.00;;;;;12.03;50.75;98261.66;6158766;28;97236;-60
2020/12/06 03:18:56;;;;;;;;;32.60;30.00;;;;;12.09;51.28;98258.00;6159381;28;98557;-60
2020/12/06 03:21:57;;;;;;;;;30.50;26.50;;;;;12.15;50.41;98259.72;6144425;28;96580;-60
2020/12/06 03:25:01;;;;;;;;;33.80;29.20;;;;;12.12;50.09;98260.19;6136607;28;97463;-60
2020/12/06 03:28:02;;;;;;;;;33.00;30.00;;;;;12.13;50.34;98267.22;6137401;28;98665;-60
2020/12/06 03:31:04;;;;;;;;;32.40;28.40;;;;;12.15;50.17;98265.13;6138706;28;96594;-60
2020/12/06 03:34:09;;;;;;;;;34.60;30.00;;;;;11.92;49.33;98236.41;6138916;28;98114;-60
2020/12/06 03:37:11;;;;;;;;;34.00;30.00;;;;;11.90;49.46;98235.81;6147929;28;97528;-60
2020/12/06 03:40:12;;;;;;;;;33.00;28.40;;;;;12.10;50.25;98260.47;6155284;28;97509;-60
2020/12/06 03:43:14;;;;;;;;;28.60;26.20;;;;;12.13;50.04;98257.25;6162484;28;97571;-60
2020/12/06 03:46:15;;;;;;;;;33.00;29.00;;;;;12.17;50.20;98262.97;6162780;28;97088;-60
2020/12/06 03:49:17;;;;;;;;;32.00;29.00;;;;;12.22;49.89;98262.25;6162515;28;97219;-60
2020/12/06 03:52:18;;;;;;;;;31.00;28.75;;;;;12.20;49.28;98259.78;6146998;28;97061;-60
2020/12/06 03:55:19;;;;;;;;;34.50;30.50;;;;;12.07;48.09;98252.03;6161720;28;97455;-60
2020/12/06 03:58:21;;;;;;;;;30.00;28.00;;;;;11.96;48.91;98258.34;6160118;28;98664;-60
2020/12/06 04:01:22;;;;;;;;;33.50;28.00;;;;;11.58;48.20;98211.22;6149143;28;96829;-60
2020/12/06 04:04:24;;;;;;;;;31.40;28.60;;;;;11.69;48.18;98260.81;6138445;28;97000;-60
2020/12/06 04:07:25;;;;;;;;;32.00;29.00;;;;;11.63;48.91;98265.28;6146409;28;96896;-60
2020/12/06 04:10:26;;;;;;;;;34.00;30.00;;;;;11.62;49.74;98271.78;6145867;28;99156;-60
2020/12/06 04:13:28;;;;;;;;;32.00;28.60;;;;;11.65;49.59;98265.88;6138435;28;97609;-60
2020/12/06 04:16:29;;;;;;;;;31.20;29.00;;;;;11.66;49.41;98266.72;6138492;28;98561;-60
2020/12/06 04:19:30;;;;;;;;;33.75;30.00;;;;;11.38;48.96;98224.38;6142010;28;97450;-60
2020/12/06 04:22:32;;;;;;;;;30.80;28.80;;;;;11.58;49.45;98265.22;6160031;28;98113;-60
2020/12/06 04:25:34;;;;;;;;;27.60;26.60;;;;;11.54;48.64;98266.75;6137245;28;97129;-60
2020/12/06 04:28:35;;;;;;;;;33.40;30.00;;;;;11.51;49.31;98264.56;6138116;28;98404;-60
2020/12/06 04:31:37;;;;;;;;;27.00;24.00;;;;;11.48;50.19;98256.13;6137460;28;98506;-60
2020/12/06 04:34:38;;;;;;;;;32.50;28.25;;;;;11.65;50.49;98273.97;6137400;28;97472;-60
2020/12/06 04:37:39;;;;;;;;;33.40;30.00;;;;;11.53;50.58;98254.31;6136981;28;96605;-60
2020/12/06 04:40:41;;;;;;;;;30.60;28.60;;;;;11.73;50.00;98261.97;6138070;28;97451;-60
2020/12/06 04:43:44;;;;;;;;;35.50;30.25;;;;;11.77;50.41;98267.75;6137929;28;97095;-60
2020/12/06 04:46:45;;;;;;;;;36.20;30.60;;;;;11.84;50.70;98277.31;6139226;28;98516;-60
2020/12/06 04:49:51;;;;;;;;;34.00;29.80;;;;;11.92;50.67;98276.09;6159178;28;96945;-60
2020/12/06 04:52:57;;;;;;;;;34.20;31.60;;;;;11.94;51.10;98277.47;6138263;28;97546;-60
2020/12/06 04:56:03;;;;;;;;;37.25;31.75;;;;;11.99;50.18;98279.44;6136774;28;97463;-60
2020/12/06 04:59:06;;;;;;;;;36.00;30.00;;;;;11.96;49.92;98278.06;6137011;28;98681;-60
2020/12/06 05:02:10;;;;;;;;;36.40;31.40;;;;;11.85;48.98;98280.81;6153608;28;97741;-60
2020/12/06 05:05:13;;;;;;;;;33.20;29.80;;;;;11.73;48.48;98277.41;6161313;28;96495;-60
2020/12/06 05:08:15;;;;;;;;;34.20;31.20;;;;;11.59;48.44;98280.34;6160923;28;98496;-60
2020/12/06 05:11:16;;;;;;;;;31.50;29.50;;;;;11.45;47.86;98276.31;6161338;28;98504;-60
2020/12/06 05:14:17;;;;;;;;;36.00;30.50;;;;;11.35;47.93;98278.00;6160634;28;96645;-60
2020/12/06 05:17:19;;;;;;;;;36.00;31.00;;;;;11.18;47.35;98269.88;6160829;28;96601;-60
2020/12/06 05:20:20;;;;;;;;;39.60;32.00;;;;;11.04;48.28;98269.34;6156857;28;98557;-60
2020/12/06 05:23:22;;;;;;;;;36.20;32.20;;;;;10.96;48.24;98258.91;6136736;28;97464;-60
2020/12/06 05:26:24;;;;;;;;;40.00;32.60;;;;;10.78;48.01;98265.31;6135615;28;98354;-60
2020/12/06 05:29:25;;;;;;;;;35.00;32.00;;;;;10.69;48.41;98258.63;6136453;28;97739;-60
2020/12/06 05:32:28;;;;;;;;;40.00;32.00;;;;;10.56;48.92;98256.19;6136274;28;97715;-59
2020/12/06 05:35:29;;;;;;;;;37.50;32.00;;;;;10.62;49.20;98271.41;6136608;28;98487;-60
2020/12/06 05:38:32;;;;;;;;;38.20;33.00;;;;;10.63;49.41;98283.03;6152538;28;96645;-60
2020/12/06 05:41:33;;;;;;;;;38.00;32.75;;;;;10.71;50.13;98291.56;6136329;28;96570;-60
2020/12/06 05:44:35;;;;;;;;;35.00;31.60;;;;;10.73;50.10;98294.03;6134433;28;99638;-60
2020/12/06 05:47:37;;;;;;;;;40.00;32.00;;;;;10.77;50.14;98287.91;6134060;28;98597;-60
2020/12/06 05:50:39;;;;;;;;;33.00;28.00;;;;;10.49;50.06;98233.94;6136277;28;98819;-60
2020/12/06 05:53:41;;;;;;;;;37.40;33.00;;;;;10.79;50.54;98276.91;6157049;28;97190;-60
2020/12/06 05:56:43;;;;;;;;;34.00;30.00;;;;;10.76;50.89;98274.66;6159542;28;97438;-60
2020/12/06 05:59:45;;;;;;;;;38.40;33.00;;;;;10.73;49.45;98285.94;6160087;28;97262;-60
2020/12/06 06:02:57;;;;;;;;;37.40;31.80;;;;;10.46;49.91;98249.78;6136023;28;98090;-60
2020/12/06 06:06:02;;;;;;;;;39.60;32.60;;;;;10.68;50.07;98293.91;6134729;28;99074;-60
2020/12/06 06:09:07;;;;;;;;;41.40;34.00;;;;;10.66;49.72;98302.22;6156290;28;97633;-60
2020/12/06 06:12:23;;;;;;;;;38.40;33.00;;;;;10.56;50.24;98287.72;6160225;28;96930;-60
2020/12/06 06:15:25;;;;;;;;;36.50;32.00;;;;;10.56;48.96;98295.78;6159441;28;96577;-60
2020/12/06 06:18:27;;;;;;;;;39.40;31.20;;;;;10.57;49.72;98297.44;6160103;28;97540;-60
2020/12/06 06:21:33;;;;;;;;;38.60;32.00;;;;;10.56;51.23;98299.31;6159130;28;97518;-60
2020/12/06 06:24:37;;;;;;;;;35.50;32.00;;;;;10.57;52.08;98300.94;6147973;28;96732;-60
2020/12/06 06:27:40;;;;;;;;;41.00;32.00;;;;;10.65;51.53;98295.19;6134753;28;98520;-60
2020/12/06 06:30:42;;;;;;;;;36.40;32.00;;;;;10.72;52.08;98303.16;6136775;28;97087;-60
2020/12/06 06:33:43;;;;;;;;;39.00;32.00;;;;;10.83;52.18;98308.53;6135993;28;97076;-60
2020/12/06 06:36:45;;;;;;;;;32.00;29.20;;;;;10.93;51.72;98318.72;6147518;28;97358;-60
2020/12/06 06:39:47;;;;;;;;;39.60;31.00;;;;;11.02;51.14;98320.00;6144417;28;97796;-60
2020/12/06 06:42:48;;;;;;;;;37.20;32.20;;;;;11.05;50.25;98330.28;6142550;28;97111;-60
2020/12/06 06:45:49;;;;;;;;;37.75;32.00;;;;;11.13;50.39;98329.94;6159900;28;97269;-60
2020/12/06 06:48:51;;;;;;;;;37.00;32.00;;;;;11.23;50.30;98332.03;6160118;28;97102;-60
2020/12/06 06:51:53;;;;;;;;;38.25;32.00;;;;;11.25;49.56;98328.03;6145169;28;97467;-60
2020/12/06 06:54:57;;;;;;;;;36.80;32.00;;;;;11.29;49.31;98325.66;6160435;28;97878;-60
2020/12/06 06:57:58;;;;;;;;;36.00;32.00;;;;;11.33;48.66;98328.72;6145154;28;96776;-60
2020/12/06 07:01:19;;;;;;;;;38.60;33.60;;;;;11.39;49.21;98331.25;6138471;28;98459;-60
2020/12/06 07:04:21;;;;;;;;;38.00;33.40;;;;;11.41;48.75;98323.75;6139699;28;96741;-60
2020/12/06 07:07:39;;;;;;;;;39.00;33.00;;;;;11.48;47.97;98329.84;6146686;28;97306;-60
2020/12/06 07:10:40;;;;;;;;;41.60;35.80;;;;;11.58;47.60;98337.31;6158993;28;97537;-60
2020/12/06 07:13:42;;;;;;;;;41.33;34.67;;;;;12.19;47.19;98354.59;6161415;28;97390;-60
2020/12/06 07:16:43;;;;;;;;;36.50;31.75;;;;;13.56;44.35;98350.09;6160068;28;96612;-60
2020/12/06 07:19:47;;;;;;;;;40.00;32.25;;;;;14.64;41.50;98300.09;6137578;28;97336;-60
2020/12/06 07:22:49;;;;;;;;;36.50;32.50;;;;;16.28;39.00;98354.72;6149061;28;98535;-60
2020/12/06 07:25:50;;;;;;;;;33.80;30.00;;;;;17.18;36.95;98317.59;6162119;28;97488;-60
2020/12/06 07:28:51;;;;;;;;;32.60;29.00;;;;;18.28;35.43;98345.34;6164792;28;97619;-60
2020/12/06 07:31:54;;;;;;;;;35.00;31.00;;;;;19.23;34.28;98340.13;6154305;28;97156;-60
2020/12/06 07:34:55;;;;;;;;;32.80;30.40;;;;;19.99;32.68;98322.72;6160239;28;97419;-60
2020/12/06 07:37:57;;;;;;;;;36.50;31.00;;;;;20.85;32.44;98331.47;6155741;28;96749;-60
2020/12/06 07:41:03;;;;;;;;;37.00;31.40;;;;;21.73;30.78;98328.34;6159765;28;97216;-60
2020/12/06 07:44:04;;;;;;;;;31.40;27.00;;;;;22.32;30.26;98305.31;6157277;28;97445;-60
2020/12/06 07:47:05;;;;;;;;;30.00;27.00;;;;;23.37;29.61;98330.31;6162322;28;97271;-60
2020/12/06 07:50:07;;;;;;;;;28.20;25.20;;;;;24.15;28.65;98329.34;6162510;28;97179;-60
2020/12/06 07:53:08;;;;;;;;;28.67;26.00;;;;;24.93;27.54;98341.16;6161979;28;97090;-60
2020/12/06 07:56:10;;;;;;;;;28.00;24.00;;;;;25.63;26.90;98333.41;6162578;28;97487;-60
2020/12/06 07:59:21;;;;;;;;;27.50;24.50;;;;;26.24;26.25;98340.97;6162875;28;97101;-61
2020/12/06 08:02:26;;;;;;;;;28.00;24.00;;;;;26.79;25.82;98355.59;6162473;28;97237;-60
2020/12/06 08:05:31;;;;;;;;;27.00;26.00;;;;;27.01;24.72;98322.88;6161775;28;97060;-60
2020/12/06 08:08:38;;;;;;;;;27.00;24.00;;;;;27.54;24.28;98338.53;6160294;28;97595;-61
2020/12/06 08:11:46;;;;;;;;;27.67;23.00;;;;;27.75;23.68;98330.09;6160056;28;97161;-61
2020/12/06 08:14:47;;;;;;;;;25.00;25.00;;;;;28.07;23.50;98331.06;6161880;28;97997;-61
2020/12/06 08:17:51;;;;;;;;;27.80;25.20;;;;;28.57;23.32;98321.47;6159601;28;97212;-61
2020/12/06 08:20:53;;;;;;;;;26.00;24.00;;;;;28.67;22.41;98330.09;6139033;28;97903;-60
2020/12/06 08:23:55;;;;;;;;;26.00;24.00;;;;;28.99;22.33;98336.50;6137483;28;97648;-60
2020/12/06 08:26:57;;;;;;;;;29.40;26.00;;;;;29.33;22.15;98339.78;6138001;28;96681;-60
2020/12/06 08:30:03;;;;;;;;;27.60;26.00;;;;;29.77;21.67;98338.50;6149352;28;97450;-60
2020/12/06 08:33:05;;;;;;;;;25.00;23.00;;;;;30.01;21.27;98343.84;6161135;28;97116;-60
2020/12/06 08:36:07;;;;;;;;;26.00;23.00;;;;;29.97;21.46;98284.59;6160039;28;96656;-60
2020/12/06 08:39:19;;;;;;;;;22.50;20.00;;;;;30.62;20.83;98325.72;6160309;28;97745;-61
2020/12/06 08:42:21;;;;;;;;;25.40;22.40;;;;;30.83;20.45;98307.47;6159788;28;97128;-60
2020/12/06 08:45:24;;;;;;;;;24.00;23.60;;;;;31.27;20.39;98332.13;6161170;28;97081;-60
2020/12/06 08:48:29;;;;;;;;;23.00;20.00;;;;;31.36;20.34;98319.56;6161354;28;98577;-61
2020/12/06 08:51:37;;;;;;;;;24.25;22.75;;;;;31.71;20.01;98322.16;6159426;28;97175;-61
2020/12/06 08:54:39;;;;;;;;;23.25;21.25;;;;;31.93;19.28;98319.66;6160507;28;97197;-61
2020/12/06 08:57:40;;;;;;;;;27.40;24.60;;;;;32.09;19.26;98318.31;6160766;28;97732;-60
2020/12/06 09:00:41;;;;;;;;;24.20;23.00;;;;;32.14;19.52;98309.66;6161007;28;96840;-61
2020/12/06 09:03:43;;;;;;;;;25.60;22.60;;;;;32.28;19.09;98314.59;6160630;28;96434;-61
2020/12/06 09:06:46;;;;;;;;;26.25;22.00;;;;;32.49;18.79;98314.06;6136977;28;98066;-61
2020/12/06 09:09:47;;;;;;;;;24.00;21.40;;;;;32.72;19.11;98322.34;6136825;28;97465;-61
2020/12/06 09:12:48;;;;;;;;;22.80;22.00;;;;;32.90;19.06;98312.97;6136448;28;98213;-61
2020/12/06 09:15:50;;;;;;;;;24.40;23.00;;;;;33.01;18.71;98313.88;6136408;28;97604;-61
2020/12/06 09:18:51;;;;;;;;;26.00;21.00;;;;;33.16;18.55;98305.66;6136660;28;97176;-61
2020/12/06 09:21:52;;;;;;;;;23.00;22.60;;;;;33.42;18.08;98311.09;6136133;28;96472;-61
2020/12/06 09:24:54;;;;;;;;;25.40;22.40;;;;;33.77;17.99;98307.78;6136210;28;97469;-60
2020/12/06 09:27:55;;;;;;;;;22.00;20.20;;;;;33.93;17.95;98302.69;6136138;28;97223;-61
2020/12/06 09:30:57;;;;;;;;;22.60;20.00;;;;;33.70;18.05;98268.59;6146879;28;97182;-61
2020/12/06 09:33:59;;;;;;;;;19.00;17.25;;;;;33.83;18.36;98278.25;6160534;28;98344;-61
2020/12/06 09:37:00;;;;;;;;;23.00;19.00;;;;;33.92;18.19;98281.50;6160007;28;97465;-61
2020/12/06 09:40:01;;;;;;;;;21.00;18.40;;;;;34.02;18.60;98272.38;6159696;28;97583;-61
2020/12/06 09:43:03;;;;;;;;;18.00;17.00;;;;;34.08;18.04;98267.22;6160209;28;96466;-61
2020/12/06 09:46:05;;;;;;;;;20.00;18.00;;;;;34.30;17.88;98258.56;6159784;28;97603;-61
2020/12/06 09:49:06;;;;;;;;;17.50;16.50;;;;;34.34;17.93;98252.97;6159898;28;97166;-61
2020/12/06 09:52:08;;;;;;;;;19.33;18.33;;;;;34.24;17.69;98248.13;6148356;28;97384;-61
2020/12/06 09:55:09;;;;;;;;;20.60;19.00;;;;;34.15;18.07;98240.09;6135829;28;97546;-61
2020/12/06 09:58:11;;;;;;;;;20.00;19.00;;;;;34.26;18.25;98229.75;6135828;28;96588;-61
2020/12/06 10:01:12;;;;;;;;;19.80;18.20;;;;;34.47;18.20;98225.41;6136354;28;97560;-61
2020/12/06 10:04:13;;;;;;;;;22.67;20.67;;;;;34.64;17.50;98224.66;6135415;28;96981;-61
2020/12/06 10:07:15;;;;;;;;;20.20;19.80;;;;;34.87;17.56;98215.91;6149827;28;97094;-60
2020/12/06 10:10:16;;;;;;;;;23.40;21.00;;;;;35.14;17.63;98220.72;6159357;28;97098;-61
2020/12/06 10:13:17;;;;;;;;;20.00;19.00;;;;;35.25;17.50;98220.75;6159976;28;97300;-61
2020/12/06 10:16:19;;;;;;;;;18.00;16.00;;;;;35.17;17.21;98210.75;6158930;28;97231;-61
2020/12/06 10:19:20;;;;;;;;;20.00;18.00;;;;;35.34;17.13;98206.31;6139435;28;96868;-61
2020/12/06 10:22:22;;;;;;;;;18.00;17.00;;;;;35.34;17.12;98200.72;6142143;28;96733;-61
2020/12/06 10:25:38;;;;;;;;;18.00;15.00;;;;;35.11;17.00;98190.72;6137934;28;97002;-61
2020/12/06 10:28:39;;;;;;;;;16.00;14.80;;;;;34.89;16.94;98186.31;6135566;28;96612;-60
2020/12/06 10:31:41;;;;;;;;;17.40;16.00;;;;;34.30;17.38;98183.00;6135378;28;96998;-61
2020/12/06 10:34:42;;;;;;;;;11.60;10.00;;;;;33.09;17.64;98175.09;6136816;28;96509;-61
2020/12/06 10:37:44;;;;;;;;;9.00;9.00;;;;;31.80;19.25;98163.81;6141877;28;97317;-61
2020/12/06 10:40:46;;;;;;;;;9.00;8.00;;;;;31.50;18.93;98162.97;6164413;28;97475;-61
2020/12/06 10:43:47;;;;;;;;;8.60;8.00;;;;;31.29;19.54;98152.31;6164362;28;97481;-60
2020/12/06 10:46:49;;;;;;;;;9.25;9.00;;;;;30.08;20.29;98132.75;6164731;28;96664;-60
2020/12/06 10:49:50;;;;;;;;;11.00;10.00;;;;;29.28;21.03;98158.41;6152322;28;97180;-61
2020/12/06 10:52:52;;;;;;;;;7.00;6.00;;;;;29.01;21.47;98148.25;6144781;28;99250;-61
2020/12/06 10:55:53;;;;;;;;;7.00;7.00;;;;;28.96;21.78;98161.59;6159647;28;97057;-60
2020/12/06 10:58:55;;;;;;;;;9.25;8.25;;;;;28.82;21.52;98140.69;6162018;28;97685;-60
2020/12/06 11:01:58;;;;;;;;;9.00;8.00;;;;;28.90;21.98;98160.25;6162683;28;97517;-60
2020/12/06 11:04:59;;;;;;;;;7.40;7.00;;;;;28.52;22.23;98161.69;6139859;28;97534;-60
2020/12/06 11:08:00;;;;;;;;;8.00;7.60;;;;;28.70;22.15;98156.56;6140035;28;97085;-60
2020/12/06 11:11:02;;;;;;;;;6.20;6.20;;;;;28.86;22.03;98146.31;6139688;28;97476;-60
2020/12/06 11:14:03;;;;;;;;;8.00;7.67;;;;;28.02;22.53;98145.66;6139622;28;97435;-60
2020/12/06 11:17:04;;;;;;;;;8.80;7.20;;;;;28.24;22.75;98160.94;6138284;28;97592;-60
2020/12/06 11:20:06;;;;;;;;;10.00;10.00;;;;;28.68;22.21;98153.38;6138743;28;96994;-60
2020/12/06 11:23:07;;;;;;;;;9.00;8.00;;;;;29.16;21.72;98135.53;6141913;28;98127;-60
2020/12/06 11:26:08;;;;;;;;;11.00;9.00;;;;;29.43;21.67;98136.53;6159460;28;97170;-60
2020/12/06 11:29:10;;;;;;;;;10.50;9.00;;;;;29.65;21.40;98144.97;6137638;28;97702;-60
2020/12/06 11:32:12;;;;;;;;;8.20;7.80;;;;;29.79;20.86;98107.53;6142580;28;97545;-60
2020/12/06 11:35:13;;;;;;;;;9.00;8.00;;;;;30.28;20.53;98133.53;6143392;28;97306;-60
2020/12/06 11:38:15;;;;;;;;;7.00;7.00;;;;;30.10;20.84;98138.72;6162981;28;97489;-60
2020/12/06 11:41:16;;;;;;;;;9.00;8.00;;;;;29.93;21.02;98136.44;6163041;28;98681;-60
2020/12/06 11:44:18;;;;;;;;;9.00;8.00;;;;;29.29;21.05;98131.44;6159209;28;97446;-60
2020/12/06 11:47:23;;;;;;;;;9.00;8.00;;;;;29.22;21.51;98112.66;6142235;28;97069;-61
2020/12/06 11:50:24;;;;;;;;;7.00;7.00;;;;;29.00;21.40;98127.22;6154241;28;96865;-60
2020/12/06 11:53:26;;;;;;;;;8.40;8.40;;;;;28.66;21.66;98083.56;6144675;28;99017;-60
2020/12/06 11:56:27;;;;;;;;;8.50;8.00;;;;;28.53;21.99;98118.94;6161061;28;97680;-61
2020/12/06 11:59:28;;;;;;;;;6.50;6.00;;;;;28.03;22.36;98114.03;6160843;28;98486;-60
2020/12/06 12:02:31;;;;;;;;;9.00;9.00;;;;;27.35;23.15;98110.47;6147495;28;97476;-60
2020/12/06 12:05:32;;;;;;;;;9.00;7.40;;;;;27.65;22.89;98110.97;6150849;28;97052;-60
2020/12/06 12:08:34;;;;;;;;;7.00;6.40;;;;;27.67;22.68;98081.75;6152117;28;97233;-60
2020/12/06 12:11:36;;;;;;;;;6.00;6.00;;;;;27.69;22.45;98098.84;6147665;28;96896;-60
2020/12/06 12:14:37;;;;;;;;;9.00;7.60;;;;;27.68;22.13;98100.00;6151186;28;97667;-60
2020/12/06 12:17:39;;;;;;;;;6.60;6.00;;;;;27.90;22.21;98104.19;6150743;28;98510;-60
2020/12/06 12:20:40;;;;;;;;;7.00;7.00;;;;;27.92;21.60;98102.66;6140350;28;97769;-60
2020/12/06 12:23:42;;;;;;;;;8.00;6.50;;;;;28.03;21.47;98064.16;6140745;28;97597;-60
2020/12/06 12:26:43;;;;;;;;;8.00;6.80;;;;;28.56;21.19;98109.88;6161232;28;96949;-60
2020/12/06 12:29:44;;;;;;;;;7.00;7.00;;;;;28.83;21.60;98105.44;6160455;28;96853;-60
2020/12/06 12:32:46;;;;;;;;;7.40;6.60;;;;;28.68;20.70;98095.13;6161144;28;97065;-60
2020/12/06 12:35:47;;;;;;;;;6.00;5.00;;;;;28.97;20.47;98100.22;6161312;28;97481;-60
2020/12/06 12:38:48;;;;;;;;;6.00;6.00;;;;;28.71;20.55;98102.72;6144189;28;97662;-60
2020/12/06 12:41:50;;;;;;;;;7.25;7.00;;;;;28.69;20.87;98114.16;6137405;28;96740;-60
2020/12/06 12:44:52;;;;;;;;;6.00;6.00;;;;;28.46;20.42;98096.56;6158918;28;97454;-60
2020/12/06 12:47:55;;;;;;;;;7.20;7.00;;;;;28.33;21.09;98098.63;6140959;28;97409;-60
2020/12/06 12:50:56;;;;;;;;;8.25;8.25;;;;;28.05;21.01;98086.78;6157469;28;96743;-60
2020/12/06 12:53:58;;;;;;;;;8.50;7.00;;;;;27.43;21.53;98088.16;6161167;28;97535;-60
2020/12/06 12:57:03;;;;;;;;;6.25;6.25;;;;;26.88;22.25;98079.81;6160613;28;97451;-60
2020/12/06 13:00:04;;;;;;;;;7.00;6.60;;;;;26.55;22.58;98077.94;6160737;28;97648;-60
2020/12/06 13:03:05;;;;;;;;;8.00;8.00;;;;;26.37;22.72;98071.03;6160614;28;97195;-60
2020/12/06 13:06:09;;;;;;;;;6.00;6.00;;;;;25.99;23.13;98049.19;6158532;28;96756;-60
2020/12/06 13:09:10;;;;;;;;;9.00;8.00;;;;;25.06;24.01;98082.03;6148121;28;97457;-60
2020/12/06 13:12:12;;;;;;;;;7.60;7.60;;;;;24.60;24.71;98047.91;6162307;28;97662;-60
2020/12/06 13:15:13;;;;;;;;;5.60;5.60;;;;;23.72;25.92;98050.53;6151196;28;97082;-60
2020/12/06 13:18:15;;;;;;;;;6.00;5.60;;;;;23.01;26.59;98065.78;6137353;28;98514;-60
2020/12/06 13:21:17;;;;;;;;;7.00;7.00;;;;;22.31;28.12;98063.97;6136927;28;97196;-60
2020/12/06 13:24:18;;;;;;;;;7.00;6.80;;;;;20.92;30.01;98066.91;6137596;28;98999;-60
2020/12/06 13:27:20;;;;;;;;;9.60;9.00;;;;;20.71;30.54;98069.31;6139734;28;97641;-60
2020/12/06 13:30:23;;;;;;;;;7.00;6.00;;;;;20.59;30.08;98093.66;6144116;28;98672;-60
2020/12/06 13:33:24;;;;;;;;;5.60;5.60;;;;;19.96;31.15;98057.13;6144990;28;97318;-60
2020/12/06 13:36:26;;;;;;;;;8.00;7.00;;;;;19.53;31.94;98076.50;6145312;28;97155;-60
2020/12/06 13:39:27;;;;;;;;;6.75;6.50;;;;;19.29;32.62;98075.78;6151680;28;97794;-60
2020/12/06 13:42:29;;;;;;;;;10.00;8.60;;;;;18.83;33.21;98084.66;6138827;28;97461;-59
2020/12/06 13:45:31;;;;;;;;;8.00;7.00;;;;;18.49;34.08;98079.34;6136869;28;97679;-59
2020/12/06 13:48:32;;;;;;;;;10.00;9.00;;;;;18.11;34.55;98053.88;6136877;28;96581;-59
2020/12/06 13:51:33;;;;;;;;;10.40;9.40;;;;;18.13;34.85;98064.53;6136637;28;97275;-59
2020/12/06 13:54:35;;;;;;;;;6.80;6.80;;;;;17.48;36.02;98055.06;6149727;28;98603;-59
2020/12/06 13:57:36;;;;;;;;;7.00;6.50;;;;;17.39;36.32;98067.69;6161352;28;98257;-60
2020/12/06 14:00:38;;;;;;;;;7.00;6.00;;;;;17.30;36.56;98065.53;6150280;28;98290;-59
2020/12/06 14:03:39;;;;;;;;;8.00;8.00;;;;;17.18;36.79;98091.53;6136891;28;98779;-59